x

Portland 12 Nm Southeast Of Portland,me (44007) Wave Buoy

8:50 - Thu 22nd Jun 2017 All times are EDT. -4 hours from GMT.

  • Sig Wave height 2.0ft
  • Swell Direction
  • Peak Period 6s
  • Average Period 6s
  • Wind
    9mph, 9mph gusts
  • Sea Temp 56°f
  • Air Temp 58°f
  • Sea Pressure 1013.6mb
  • Portland 12 Nm Southeast Of Portland,me
  • Portland 12 Nm Southeast Of Portland,me

More Historic Weather Station data

Upgrade to MSW Pro to gain access to the past 30 days of data for over 8000 Wavebouys and Weather Stations around the globe.

Join Pro

Comparision Forecast

View Surf forecast
   
jeu. 06/22 8:50 2ft 6s 6s 9 9 mph 1013.6mb 56f 58f
7:50 2ft 7s 5s 7 7 mph 1013.2mb 55f 58f
6:50 2ft 6s 6s 7 7 mph 1013.2mb 55f 58f
5:50 2ft 7s 6s 7 7 mph 1012.9mb 54f 57f
4:50 2ft 7s 6s 7 9 mph 1012.4mb 54f 57f
3:50 2.5ft 7s 6s 4 7 mph 1012.2mb 54f 59f
2:50 2.5ft 5s 6s 4 7 mph 1012mb 54f 60f
1:50 2.5ft 6s 6s 7 7 mph 1011.8mb 54f 59f
12:50 2.5ft 8s 6s 9 9 mph 1011.4mb 54f 59f
mer. 06/21 11:50 2ft 8s 6s 7 9 mph 1011mb 55f 60f
10:50 2.5ft 8s 6s 4 7 mph 1010.5mb 55f 61f
9:50 2.5ft 7s 6s 9 11 mph 1010.2mb 55f 62f
8:50 2.5ft 7s 5s 9 9 mph 1009.3mb 55f 63f
7:50 2.5ft 7s 5s 11 13 mph 1009mb 56f 65f
6:50 2.5ft 7s 4s 9 11 mph 1008.7mb 56f 66f
5:50 2.5ft 8s 4s 16 18 mph 1007.8mb 56f 67f
4:50 2.5ft 7s 5s 16 18 mph 1007.6mb 57f 68f
3:50 2.5ft 7s 4s 9 11 mph 1007.6mb 57f 65f
2:50 2.5ft 8s 5s 11 13 mph 1007.8mb 57f 66f
1:50 2.5ft 8s 5s 11 11 mph 1007.9mb 56f 62f
12:50 2.5ft 8s 6s 11 13 mph 1008.3mb 56f 60f
11:50 2.5ft 8s 6s 7 11 mph 1008.9mb 56f 59f
10:50 2.5ft 9s 6s 11 13 mph 1009.2mb 56f 58f
9:50 2.5ft 7s 6s 7 9 mph 1009.5mb 56f 58f
8:50 2.5ft 8s 5s 7 9 mph 1010.4mb 55f 57f
7:50 3ft 7s 5s 11 11 mph 1010.7mb 55f 58f
6:50 3ft 8s 5s 11 13 mph 1011.1mb 55f 57f
5:50 3ft 7s 5s 13 13 mph 1010.6mb 55f 58f
4:50 3ft 7s 5s 11 11 mph 1010.8mb 55f 58f
3:50 3.5ft 6s 5s 9 11 mph 1010.7mb 55f 58f
2:50 3.5ft 6s 5s 9 9 mph 1010.9mb 55f 58f
1:50 3.5ft 6s 5s 9 9 mph 1011mb 55f 60f
12:50 3.5ft 7s 5s 11 13 mph 1011.3mb 55f 60f
mar. 06/20 11:50 3.5ft 7s 5s 11 13 mph 1011mb 54f 62f
10:50 4ft 6s 6s 11 11 mph 1010.7mb 55f 62f
9:50 4ft 7s 6s 7 9 mph 1010.3mb 55f 63f
8:50 3.5ft 7s 6s 11 11 mph 1009.5mb 55f 68f
7:50 3.5ft 6s 5s 11 11 mph 1009.1mb 55f 65f
6:50 3.5ft 7s 5s 11 13 mph 1008.1mb 55f 62f
5:50 4ft 7s 5s 13 16 mph 1007.2mb 54f 61f
4:50 4ft 7s 5s 18 20 mph 1007.3mb 54f 61f
3:50 3.5ft 7s 5s 18 18 mph 1007.4mb 54f 61f
2:50 4ft 7s 5s 16 20 mph 1007.6mb 54f 60f
1:50 4ft 7s 5s 18 25 mph 1008.3mb 54f 59f
12:50 4.5ft 6s 5s 16 18 mph 1007.7mb 54f 61f
11:50 4.5ft 6s 5s 16 18 mph 1008.2mb 55f 58f
10:50 4.5ft 7s 5s 13 16 mph 1008.4mb 55f 58f
9:50 4.5ft 7s 5s 13 16 mph 1008.6mb 55f 57f
8:50 5ft 7s 5s 16 18 mph 1008.3mb 54f 59f
7:50 4.5ft 6s 5s 18 22 mph 1008.5mb 54f 59f
6:50 4.5ft 7s 5s 18 20 mph 1008.4mb 54f 59f
5:50 5ft 6s 5s 18 20 mph 1008.3mb 54f 59f
4:50 5ft 7s 5s 18 20 mph 1008.6mb 54f 60f
3:50 4.5ft 7s 5s 18 20 mph 1008.5mb 54f 60f
2:50 5ft 7s 6s 11 11 mph 1008.5mb 54f 57f
1:50 5ft 7s 6s 11 13 mph 1008.9mb 54f 57f
12:50 5ft 6s 5s 13 16 mph 1008.7mb 54f 59f
lun. 06/19 11:50 5ft 7s 6s 13 16 mph 1009.3mb 55f 59f
10:50 5.5ft 7s 6s 16 20 mph 1009.2mb 55f 60f
9:50 5ft 6s 5s 13 18 mph 1009.1mb 55f 60f
8:50 5ft 6s 5s 18 20 mph 1008.7mb 56f 62f
7:50 6ft 7s 5s 22 25 mph 1007.8mb 56f 62f
6:50 6ft 7s 5s 11 18 mph 1008mb 57f 62f
5:50 6ft 7s 5s 25 29 mph 1007.1mb 57f 63f
4:50 5ft 7s 5s 20 25 mph 1007.3mb 57f 62f
3:50 4.5ft 7s 5s 18 20 mph 1008.1mb 57f 61f
2:50 5ft 6s 5s 20 25 mph 1008.3mb 56f 62f
1:50 5ft 7s 5s 20 22 mph 1008.8mb 56f 61f
12:50 5ft 6s 5s 20 22 mph 1009.1mb 56f 61f
11:50 4.5ft 6s 5s 20 22 mph 1009.3mb 56f 61f
10:50 5ft 6s 5s 18 20 mph 1009.4mb 56f 61f
9:50 5ft 6s 5s 18 20 mph 1009.3mb 56f 60f
8:50 4.5ft 7s 5s 13 16 mph 1009.6mb 56f 60f
7:50 5ft 7s 5s 16 18 mph 1009.3mb 56f 60f
6:50 5ft 7s 5s 16 18 mph 1008.7mb 57f 61f
5:50 5.5ft 8s 5s 11 13 mph 1008.8mb 57f 60f
4:50 5.5ft 8s 6s 18 22 mph 1007.9mb 57f 61f
3:50 5.5ft 8s 5s 20 25 mph 1007.7mb 57f 61f
2:50 5ft 7s 5s 22 25 mph 1007.8mb 57f 61f
1:50 5ft 7s  -  20 25 mph 1008.2mb 57f 61f
12:50 5ft 6s 5s 22 25 mph 1008.4mb 56f 61f
dim. 06/18 11:50 6ft 6s 5s 22 27 mph 1008.4mb 57f 62f
10:50 6ft 6s 5s 25 29 mph 1007.6mb 57f 63f
9:50 6ft 6s 5s 18 22 mph 1008.5mb 57f 62f
8:50 5.5ft 5s 5s 22 27 mph 1007.6mb 58f 63f
7:50 5ft 7s 5s 22 25 mph 1007.1mb 58f 63f
6:50 5ft 7s 5s 20 25 mph 1007.2mb 59f 62f
5:50 5ft 8s 5s 22 25 mph 1007.3mb 59f 63f
4:50 5ft 8s 5s 20 22 mph 1007.8mb 60f 63f
3:50 4.5ft 8s  -  11 13 mph 1009.3mb 60f 62f
2:50 4.5ft 8s 6s 13 16 mph 1009.5mb 60f 62f